Time;durP1;ratioP1;P1;durP2;ratioP2;P2;SDS_P1;SDS_P2;PMS_P1;PMS_P2;Temp;Humidity;BMP_temperature;BMP_pressure;BME280_temperature;BME280_humidity;BME280_pressure;Samples;Min_cycle;Max_cycle;Signal;HPM_P1;HPM_P2
2021/03/12 00:01:07;;;;;;;0.32;0.32;;;;;;;3.57;87.99;95174.19;4970531;28;20057;-51
2021/03/12 00:03:36;;;;;;;1.45;0.63;;;;;;;3.48;88.14;95166.13;4973384;28;20058;-51
2021/03/12 00:06:09;;;;;;;0.65;0.22;;;;;;;3.50;87.58;95165.81;4992736;28;20058;-52
2021/03/12 00:08:38;;;;;;;0.30;0.30;;;;;;;3.54;87.33;95188.16;4966831;28;20062;-51
2021/03/12 00:11:06;;;;;;;0.22;0.22;;;;;;;3.56;88.00;95180.66;4974794;28;20062;-51
2021/03/12 00:13:33;;;;;;;0.20;0.20;;;;;;;3.54;86.90;95187.38;4982427;28;20051;-51
2021/03/12 00:16:01;;;;;;;0.50;0.30;;;;;;;3.56;86.77;95186.00;4962303;28;20065;-52
2021/03/12 00:18:37;;;;;;;0.20;0.20;;;;;;;3.57;86.21;95176.09;4968735;28;20936;-52
2021/03/12 00:21:05;;;;;;;0.20;0.20;;;;;;;3.61;86.38;95182.41;4974751;28;20107;-54
2021/03/12 00:23:32;;;;;;;0.30;0.30;;;;;;;3.65;86.41;95178.81;4971463;28;20051;-50
2021/03/12 00:25:58;;;;;;;0.38;0.20;;;;;;;3.62;86.21;95197.38;4972750;28;20062;-53
2021/03/12 00:28:25;;;;;;;0.22;0.20;;;;;;;3.62;86.13;95200.03;4969462;28;20394;-54
2021/03/12 00:30:52;;;;;;;0.47;0.30;;;;;;;3.64;86.61;95205.84;4961194;28;20062;-52
2021/03/12 00:33:22;;;;;;;0.17;0.15;;;;;;;3.94;85.30;95196.28;4968548;28;20075;-52
2021/03/12 00:35:50;;;;;;;0.43;0.10;;;;;;;3.64;86.41;95187.13;4968770;28;20063;-56
2021/03/12 00:38:17;;;;;;;0.85;0.28;;;;;;;3.77;85.51;95205.00;4968715;28;20072;-53
2021/03/12 00:40:57;;;;;;;0.43;0.20;;;;;;;3.82;85.51;95207.53;4968621;28;20047;-56
2021/03/12 00:43:27;;;;;;;1.48;0.20;;;;;;;3.75;85.85;95209.88;4968294;28;20134;-51
2021/03/12 00:45:59;;;;;;;2.05;0.10;;;;;;;3.81;84.64;95207.88;4968673;28;20063;-54
2021/03/12 00:48:27;;;;;;;0.88;0.30;;;;;;;3.85;86.10;95217.63;5009234;23;20124;-50
2021/03/12 00:51:00;;;;;;;;;;;;;;;3.88;84.28;95214.34;4982271;28;20054;-55
2021/03/12 00:53:37;;;;;;;0.20;0.20;;;;;;;3.83;85.69;95216.34;4996141;28;19926;-49
2021/03/12 00:56:05;;;;;;;1.45;0.20;;;;;;;3.76;85.36;95214.13;4992715;28;20043;-48
2021/03/12 00:58:34;;;;;;;1.05;0.30;;;;;;;3.63;85.73;95204.28;4982427;28;20039;-47
2021/03/12 01:01:03;;;;;;;3.50;0.50;;;;;;;3.65;86.05;95188.72;4953249;29;20098;-50
2021/03/12 01:03:34;;;;;;;0.38;0.28;;;;;;;3.72;85.03;95181.84;4953852;29;20134;-47
2021/03/12 01:06:06;;;;;;;0.30;0.20;;;;;;;3.80;85.21;95180.28;4953880;29;20055;-51
2021/03/12 01:08:42;;;;;;;0.93;0.30;;;;;;;3.77;85.58;95174.78;4959527;28;20584;-49
2021/03/12 01:11:09;;;;;;;0.47;0.30;;;;;;;3.84;84.73;95178.59;4960423;28;20047;-49
2021/03/12 01:13:38;;;;;;;1.40;0.50;;;;;;;3.89;85.43;95177.66;4965744;28;20151;-51
2021/03/12 01:16:05;;;;;;;1.17;0.30;;;;;;;3.70;84.93;95186.69;4971881;28;20057;-54
2021/03/12 01:18:32;;;;;;;1.65;0.38;;;;;;;3.72;85.86;95167.69;4965264;28;20062;-53
2021/03/12 01:21:08;;;;;;;0.38;0.25;;;;;;;3.84;85.24;95170.56;4967659;28;20139;-47
2021/03/12 01:23:34;;;;;;;0.82;0.40;;;;;;;3.67;85.84;95176.63;4953286;29;20134;-48
2021/03/12 01:26:01;;;;;;;0.55;0.32;;;;;;;3.80;84.14;95182.97;4953266;28;20058;-50
2021/03/12 01:28:36;;;;;;;0.98;0.20;;;;;;;3.77;83.57;95164.88;4953592;29;20055;-48
2021/03/12 01:31:03;;;;;;;0.45;0.30;;;;;;;3.54;86.24;95184.72;4952966;28;20071;-48
2021/03/12 01:33:36;;;;;;;0.70;0.20;;;;;;;3.44;86.89;95193.78;4953120;29;20536;-48
2021/03/12 01:36:04;;;;;;;0.75;0.40;;;;;;;3.40;86.14;95200.84;4959486;28;20046;-48
2021/03/12 01:38:45;;;;;;;0.45;0.40;;;;;;;3.25;87.96;95201.97;4969319;28;21119;-48
2021/03/12 01:41:12;;;;;;;1.00;0.40;;;;;;;3.27;88.98;95200.59;4965200;28;20055;-50
2021/03/12 01:43:43;;;;;;;0.25;0.10;;;;;;;3.16;88.21;95193.13;4972040;28;20055;-48
2021/03/12 01:46:10;;;;;;;2.03;0.40;;;;;;;3.16;89.36;95193.91;4979867;28;20050;-51
2021/03/12 01:48:37;;;;;;;0.52;0.28;;;;;;;3.09;88.88;95176.69;4967733;28;20579;-52
2021/03/12 01:51:06;;;;;;;0.13;0.13;;;;;;;3.18;87.45;95186.34;4958480;28;20074;-49
2021/03/12 01:53:35;;;;;;;0.60;0.28;;;;;;;3.26;87.87;95207.03;4973241;28;20469;-48
2021/03/12 01:56:04;;;;;;;0.65;0.30;;;;;;;3.26;87.22;95219.63;4971392;28;20046;-49
2021/03/12 01:58:48;;;;;;;0.88;0.10;;;;;;;3.21;86.47;95201.00;4972228;28;20046;-47
2021/03/12 02:01:24;;;;;;;0.28;0.28;;;;;;;3.13;87.29;95199.84;4962404;28;20066;-49
2021/03/12 02:03:55;;;;;;;0.40;0.20;;;;;;;3.14;87.32;95188.06;4971619;28;20078;-51
2021/03/12 02:06:45;;;;;;;0.52;0.28;;;;;;;3.12;87.00;95192.94;4970279;28;20423;-49
2021/03/12 02:09:13;;;;;;;0.40;0.20;;;;;;;3.04;86.32;95165.03;4970914;28;20150;-48
2021/03/12 02:11:44;;;;;;;0.88;0.15;;;;;;;3.15;85.05;95183.50;4971123;28;20122;-47
2021/03/12 02:14:25;;;;;;;0.75;0.30;;;;;;;3.08;86.10;95189.25;4971817;28;20051;-47
2021/03/12 02:17:01;;;;;;;0.43;0.00;;;;;;;3.18;85.62;95191.69;4959927;28;20065;-47
2021/03/12 02:19:44;;;;;;;0.30;0.10;;;;;;;3.25;85.13;95186.75;4971075;28;20055;-50
2021/03/12 02:22:13;;;;;;;0.30;0.20;;;;;;;3.28;83.98;95159.41;4969828;28;20574;-47
2021/03/12 02:24:45;;;;;;;1.58;0.20;;;;;;;3.31;82.41;95170.56;4971652;28;20145;-47
2021/03/12 02:27:23;;;;;;;1.17;0.30;;;;;;;3.48;82.66;95178.72;4970269;28;20130;-49
2021/03/12 02:29:56;;;;;;;0.47;0.22;;;;;;;3.49;81.43;95174.94;4967011;28;20472;-52
2021/03/12 02:32:37;;;;;;;1.23;0.10;;;;;;;3.53;80.57;95169.78;4956979;28;20101;-50
2021/03/12 02:35:11;;;;;;;1.15;0.20;;;;;;;3.58;80.82;95188.38;4971272;28;20051;-53
2021/03/12 02:37:40;;;;;;;0.60;0.20;;;;;;;3.62;81.14;95194.69;4966805;28;20055;-49
2021/03/12 02:40:09;;;;;;;0.35;0.20;;;;;;;3.61;80.28;95187.78;4951389;29;20142;-52
2021/03/12 02:42:52;;;;;;;0.57;0.25;;;;;;;3.72;79.86;95173.03;4951732;28;20055;-50
2021/03/12 02:45:20;;;;;;;0.47;0.28;;;;;;;3.77;79.38;95197.00;4957419;28;20053;-47
2021/03/12 02:47:58;;;;;;;0.25;0.20;;;;;;;3.79;78.80;95192.09;4951319;28;20050;-46
2021/03/12 02:50:30;;;;;;;0.40;0.40;;;;;;;3.74;79.77;95198.38;4954187;28;20055;-46
2021/03/12 02:53:01;;;;;;;1.52;0.20;;;;;;;3.70;79.58;95197.41;4957063;28;20070;-44
2021/03/12 02:55:30;;;;;;;0.93;0.17;;;;;;;3.76;79.19;95187.38;4952072;29;20069;-46
2021/03/12 02:58:00;;;;;;;0.40;0.17;;;;;;;3.73;78.98;95175.38;4953229;28;20420;-45
2021/03/12 03:00:29;;;;;;;0.30;0.20;;;;;;;3.70;78.82;95186.69;4965124;28;20055;-43
2021/03/12 03:03:20;;;;;;;1.67;0.35;;;;;;;3.71;79.27;95192.88;4967697;28;20051;-45
2021/03/12 03:05:57;;;;;;;2.47;0.80;;;;;;;3.73;78.49;95186.09;4979693;28;20077;-45
2021/03/12 03:08:25;;;;;;;1.42;0.30;;;;;;;3.69;78.60;95189.69;4975302;28;20059;-45
2021/03/12 03:10:54;;;;;;;1.17;0.40;;;;;;;3.68;78.57;95188.91;4951847;28;20059;-46
2021/03/12 03:13:20;;;;;;;0.57;0.20;;;;;;;3.67;78.86;95197.22;4967305;28;20054;-46
2021/03/12 03:15:48;;;;;;;1.80;0.38;;;;;;;3.68;79.37;95185.44;4970354;28;20049;-44
2021/03/12 03:18:15;;;;;;;0.20;0.20;;;;;;;3.77;78.20;95191.63;4965809;28;20043;-43
2021/03/12 03:20:46;;;;;;;0.10;0.10;;;;;;;3.74;77.74;95201.06;4956203;28;20047;-44
2021/03/12 03:23:16;;;;;;;0.73;0.43;;;;;;;3.69;78.70;95195.03;4953401;28;20133;-44
2021/03/12 03:25:44;;;;;;;3.28;0.20;;;;;;;3.71;77.75;95211.59;4971823;28;20055;-43
2021/03/12 03:28:18;;;;;;;2.35;0.47;;;;;;;3.70;78.23;95221.47;4970039;28;20365;-48
2021/03/12 03:30:44;;;;;;;1.88;0.20;;;;;;;3.75;77.43;95236.63;4954217;28;20092;-48
2021/03/12 03:33:14;;;;;;;0.77;0.20;;;;;;;3.73;77.54;95220.88;4964758;28;20047;-48
2021/03/12 03:35:41;;;;;;;2.35;0.50;;;;;;;3.75;78.52;95221.38;4970542;28;20074;-51
2021/03/12 03:38:07;;;;;;;0.57;0.28;;;;;;;3.69;78.47;95235.16;4967284;28;20050;-44
2021/03/12 03:40:34;;;;;;;0.43;0.20;;;;;;;3.73;78.95;95250.28;4950578;28;20050;-44
2021/03/12 03:43:03;;;;;;;0.10;0.10;;;;;;;3.68;78.73;95247.75;4951535;28;20110;-44
2021/03/12 03:45:33;;;;;;;0.80;0.20;;;;;;;3.70;79.64;95250.91;4971632;28;20446;-55
2021/03/12 03:48:09;;;;;;;0.57;0.30;;;;;;;3.83;78.71;95254.59;4966298;28;20066;-47
2021/03/12 03:50:39;;;;;;;0.55;0.30;;;;;;;3.75;79.21;95263.38;4962374;28;20047;-48
2021/03/12 03:53:08;;;;;;;0.52;0.30;;;;;;;3.75;79.51;95268.72;4951290;29;20421;-49
2021/03/12 03:55:36;;;;;;;1.25;0.50;;;;;;;3.83;79.27;95270.66;4951654;29;20081;-43
2021/03/12 03:58:05;;;;;;;0.30;0.20;;;;;;;3.78;79.51;95267.34;4951365;28;20055;-48
2021/03/12 04:00:33;;;;;;;0.30;0.20;;;;;;;3.83;79.33;95270.66;4951339;28;20059;-48
2021/03/12 04:03:05;;;;;;;1.45;0.40;;;;;;;3.86;79.59;95279.97;4966831;28;20130;-53
2021/03/12 04:05:37;;;;;;;0.30;0.30;;;;;;;3.84;79.10;95274.94;4970546;28;20062;-46
2021/03/12 04:08:05;;;;;;;0.30;0.30;;;;;;;3.95;78.98;95288.84;4968166;28;20106;-46
2021/03/12 04:10:33;;;;;;;0.85;0.22;;;;;;;3.87;78.87;95276.22;4950463;28;20063;-47
2021/03/12 04:13:02;;;;;;;1.98;0.40;;;;;;;4.04;77.98;95288.91;4953139;28;20055;-46
2021/03/12 04:15:29;;;;;;;1.65;0.40;;;;;;;4.01;77.80;95300.22;4970766;28;20057;-46
2021/03/12 04:17:57;;;;;;;2.22;0.40;;;;;;;4.04;77.94;95297.72;4967122;28;20055;-47
2021/03/12 04:20:26;;;;;;;1.83;0.20;;;;;;;4.06;77.19;95306.22;4965844;28;20081;-47
2021/03/12 04:22:56;;;;;;;0.85;0.40;;;;;;;4.07;77.82;95294.44;4950279;28;20043;-47
2021/03/12 04:25:27;;;;;;;2.03;0.40;;;;;;;4.06;78.05;95316.94;4966657;28;20062;-49
2021/03/12 04:27:54;;;;;;;2.38;0.47;;;;;;;4.01;78.42;95313.63;4953855;28;20059;-47
2021/03/12 04:30:21;;;;;;;1.58;1.05;;;;;;;4.05;78.68;95323.41;4964464;28;20055;-47
2021/03/12 04:32:50;;;;;;;2.47;0.50;;;;;;;4.03;78.51;95327.47;4953997;29;20102;-47
2021/03/12 04:35:16;;;;;;;2.17;0.50;;;;;;;4.02;78.88;95325.91;4971317;28;20054;-48
2021/03/12 04:37:44;;;;;;;0.45;0.35;;;;;;;4.10;78.14;95327.84;4971270;28;20047;-47
2021/03/12 04:40:13;;;;;;;0.80;0.35;;;;;;;4.01;78.34;95340.38;4954206;28;20158;-47
2021/03/12 04:42:44;;;;;;;3.38;0.50;;;;;;;4.06;78.35;95337.56;4973652;28;20150;-46
2021/03/12 04:45:13;;;;;;;2.10;0.40;;;;;;;4.05;77.86;95330.63;4978203;28;20062;-46
2021/03/12 04:47:44;;;;;;;3.27;0.60;;;;;;;4.03;78.06;95325.59;4956576;28;20047;-46
2021/03/12 04:50:12;;;;;;;0.55;0.30;;;;;;;4.05;77.15;95344.81;4954823;28;20047;-52
2021/03/12 04:52:41;;;;;;;1.83;0.50;;;;;;;3.98;76.66;95334.53;4973479;28;20483;-46
2021/03/12 04:55:12;;;;;;;1.08;0.40;;;;;;;4.02;75.51;95328.56;4972811;28;20053;-45
2021/03/12 04:57:41;;;;;;;2.25;0.47;;;;;;;3.95;75.16;95335.13;4973566;28;20085;-46
2021/03/12 05:00:09;;;;;;;2.33;0.50;;;;;;;4.20;75.09;95335.63;4969292;28;20110;-46
2021/03/12 05:02:47;;;;;;;2.17;0.50;;;;;;;4.06;75.93;95341.03;4955027;28;20055;-46
2021/03/12 05:05:16;;;;;;;1.45;0.40;;;;;;;4.03;75.13;95327.47;4955644;28;20425;-54
2021/03/12 05:07:45;;;;;;;1.15;0.38;;;;;;;3.92;75.52;95326.94;4972845;28;20065;-50
2021/03/12 05:10:48;;;;;;;3.80;0.82;;;;;;;3.94;75.41;95338.13;4968474;28;20106;-49
2021/03/12 05:13:14;;;;;;;2.83;0.60;;;;;;;3.84;75.94;95335.69;4953415;29;20445;-47
2021/03/12 05:15:41;;;;;;;2.45;0.60;;;;;;;3.89;75.82;95335.56;4953637;28;20047;-52
2021/03/12 05:18:07;;;;;;;1.77;0.40;;;;;;;3.84;76.06;95317.75;4953637;28;20204;-50
2021/03/12 05:20:37;;;;;;;2.75;0.50;;;;;;;3.95;74.76;95339.69;4962108;28;20038;-50
2021/03/12 05:23:03;;;;;;;3.55;1.48;;;;;;;3.89;74.84;95333.66;4971966;28;20390;-49
2021/03/12 05:25:30;;;;;;;3.22;0.90;;;;;;;3.81;75.27;95334.41;4970960;28;20059;-52
2021/03/12 05:27:57;;;;;;;1.50;0.50;;;;;;;3.87;74.71;95353.81;4970933;28;20050;-57
2021/03/12 05:30:25;;;;;;;4.05;0.82;;;;;;;3.90;74.32;95350.50;4964863;28;20146;-54
2021/03/12 05:32:54;;;;;;;4.03;0.70;;;;;;;3.99;74.22;95351.38;4973114;28;20051;-52
2021/03/12 05:35:21;;;;;;;2.30;0.55;;;;;;;3.91;74.76;95350.22;4972338;28;20070;-50
2021/03/12 05:37:47;;;;;;;1.73;0.50;;;;;;;3.90;74.99;95356.69;4966845;28;20127;-50
2021/03/12 05:40:14;;;;;;;2.78;0.60;;;;;;;3.91;75.09;95357.47;4963329;28;20069;-51
2021/03/12 05:42:59;;;;;;;1.35;0.40;;;;;;;3.90;74.93;95372.75;4973048;28;20055;-51
2021/03/12 05:45:51;;;;;;;1.80;0.50;;;;;;;3.97;75.74;95373.09;4978509;28;20416;-50
2021/03/12 05:48:19;;;;;;;4.03;1.77;;;;;;;3.97;75.82;95383.81;4963663;28;20134;-51
2021/03/12 05:50:48;;;;;;;3.50;0.80;;;;;;;3.99;75.91;95378.13;4964356;28;20138;-53
2021/03/12 05:53:16;;;;;;;5.53;1.20;;;;;;;3.95;76.65;95380.63;4961850;28;20074;-54
2021/03/12 05:55:44;;;;;;;1.85;0.60;;;;;;;3.98;76.49;95374.69;4972651;28;20050;-51
2021/03/12 05:58:12;;;;;;;2.05;0.70;;;;;;;3.98;77.11;95390.75;4966425;28;20086;-51
2021/03/12 06:00:39;;;;;;;2.63;1.10;;;;;;;3.98;77.42;95397.97;4954280;28;20079;-54
2021/03/12 06:03:08;;;;;;;2.08;0.75;;;;;;;4.03;77.44;95402.41;4961993;28;20061;-51
2021/03/12 06:05:44;;;;;;;2.75;0.60;;;;;;;3.94;78.27;95391.66;4972703;28;20050;-51
2021/03/12 06:08:12;;;;;;;1.05;0.70;;;;;;;4.01;78.50;95396.59;4978823;28;20469;-51
2021/03/12 06:10:42;;;;;;;3.50;0.70;;;;;;;3.95;78.19;95411.97;4991747;28;20062;-49
2021/03/12 06:13:13;;;;;;;4.05;0.80;;;;;;;4.00;78.15;95403.84;4982784;28;20090;-50
2021/03/12 06:15:45;;;;;;;2.63;0.60;;;;;;;4.08;77.91;95421.06;4957127;28;20055;-53
2021/03/12 06:18:25;;;;;;;2.67;0.88;;;;;;;4.07;78.19;95414.13;4962749;28;20054;-54
2021/03/12 06:21:27;;;;;;;3.30;0.70;;;;;;;3.99;78.08;95434.34;4968678;28;20047;-53
2021/03/12 06:23:57;;;;;;;3.03;0.80;;;;;;;3.91;78.67;95432.41;4954784;29;20078;-54
2021/03/12 06:26:44;;;;;;;3.95;0.85;;;;;;;4.21;78.39;95452.34;4965381;28;20097;-47
2021/03/12 06:29:36;;;;;;;0.77;0.63;;;;;;;3.36;83.67;95459.22;4947996;28;20050;-52
2021/03/12 06:32:35;;;;;;;;;;;;;;;3.16;85.69;95471.13;4964971;28;20039;-47
2021/03/12 06:35:16;;;;;;;4.72;0.75;;;;;;;3.10;86.25;95469.63;4983875;28;19922;-45
2021/03/12 06:38:07;;;;;;;1.73;0.60;;;;;;;2.98;86.73;95476.22;4967760;28;20054;-45
2021/03/12 06:41:03;;;;;;;5.80;0.95;;;;;;;3.02;86.37;95495.13;4982099;28;20058;-50
2021/03/12 06:43:37;;;;;;;3.67;1.10;;;;;;;2.94;87.51;95487.81;4954726;28;20093;-50
2021/03/12 06:46:05;;;;;;;2.72;0.90;;;;;;;3.08;88.04;95487.81;4971240;28;20051;-45
2021/03/12 06:48:46;;;;;;;1.85;0.70;;;;;;;3.06;86.95;95488.13;4996115;23;20137;-46
2021/03/12 06:51:31;;;;;;;3.17;1.10;;;;;;;3.02;87.29;95498.63;4978791;28;20479;-47
2021/03/12 06:54:06;;;;;;;3.92;1.15;;;;;;;3.02;87.93;95493.28;4989527;28;20062;-45
2021/03/12 06:56:44;;;;;;;3.85;1.30;;;;;;;3.15;87.49;95494.38;4989700;28;20523;-48
2021/03/12 06:59:31;;;;;;;4.40;1.40;;;;;;;3.18;86.56;95501.00;4973019;28;20054;-46
2021/03/12 07:02:08;;;;;;;6.40;1.33;;;;;;;3.41;86.91;95517.94;4980092;28;20053;-47
2021/03/12 07:04:54;;;;;;;2.78;1.05;;;;;;;3.37;86.53;95523.09;4989477;28;20096;-45
2021/03/12 07:07:44;;;;;;;2.63;1.00;;;;;;;3.97;84.35;95522.22;4985610;28;20184;-47
2021/03/12 07:10:35;;;;;;;2.53;0.82;;;;;;;3.98;82.28;95518.44;4989175;28;20153;-46
2021/03/12 07:13:24;;;;;;;2.90;1.10;;;;;;;3.61;83.30;95525.59;4989362;28;20050;-45
2021/03/12 07:15:57;;;;;;;1.95;0.93;;;;;;;3.66;82.15;95525.50;4985927;28;20058;-46
2021/03/12 07:18:46;;;;;;;2.30;0.95;;;;;;;3.73;81.05;95533.13;4981905;28;20046;-45
2021/03/12 07:21:20;;;;;;;2.10;0.70;;;;;;;3.74;78.64;95532.84;4976572;28;20054;-45
2021/03/12 07:23:50;;;;;;;;;;;;;;;3.87;79.34;95541.94;4971603;28;20101;-45
2021/03/12 07:26:23;;;;;;;2.20;0.70;;;;;;;3.92;78.94;95551.75;4988468;28;20391;-46
2021/03/12 07:29:01;;;;;;;1.88;0.85;;;;;;;3.86;77.84;95548.38;4989662;28;20081;-44
2021/03/12 07:31:43;;;;;;;1.80;0.90;;;;;;;4.06;77.82;95544.47;4977560;28;20125;-46
2021/03/12 07:34:24;;;;;;;2.33;0.70;;;;;;;4.04;77.47;95549.34;4989288;28;20074;-44
2021/03/12 07:36:56;;;;;;;1.77;0.60;;;;;;;3.97;76.24;95549.78;4988889;28;20470;-45
2021/03/12 07:39:25;;;;;;;2.78;0.90;;;;;;;3.98;76.66;95562.03;4987867;28;20069;-46
2021/03/12 07:41:55;;;;;;;2.92;1.00;;;;;;;4.12;76.44;95561.25;4987567;28;20049;-47
2021/03/12 07:45:05;;;;;;;16.02;2.35;;;;;;;4.54;74.54;95565.41;4979026;28;20796;-44
2021/03/12 07:47:51;;;;;;;4.05;1.25;;;;;;;4.33;74.80;95562.41;4997475;28;20050;-45
2021/03/12 07:50:36;;;;;;;7.53;2.05;;;;;;;4.31;74.23;95564.56;4994464;28;20050;-48
2021/03/12 07:53:08;;;;;;;5.32;1.25;;;;;;;4.25;73.15;95567.66;5001890;28;20121;-45
2021/03/12 07:55:55;;;;;;;3.92;0.93;;;;;;;4.37;73.43;95566.06;4992165;28;20221;-46
2021/03/12 07:58:49;;;;;;;5.85;1.85;;;;;;;4.40;71.85;95572.69;4993229;28;20105;-46
2021/03/12 08:01:18;;;;;;;4.15;1.60;;;;;;;4.49;72.03;95564.75;5002371;28;20065;-47
2021/03/12 08:03:50;;;;;;;5.60;1.10;;;;;;;4.63;71.71;95557.47;4995575;28;20141;-45
2021/03/12 08:06:29;;;;;;;4.90;1.10;;;;;;;4.85;71.00;95556.69;4998276;28;20133;-48
2021/03/12 08:09:02;;;;;;;4.15;1.20;;;;;;;4.45;71.45;95554.63;4996818;28;20175;-45
2021/03/12 08:12:01;;;;;;;3.42;0.68;;;;;;;4.93;70.90;95563.97;5001233;28;20054;-46
2021/03/12 08:15:13;;;;;;;6.75;0.88;;;;;;;4.87;70.45;95555.25;4989791;28;20046;-45
2021/03/12 08:17:56;;;;;;;1.85;0.60;;;;;;;4.60;70.34;95550.81;4980084;28;20690;-46
2021/03/12 08:20:37;;;;;;;4.80;1.02;;;;;;;4.51;70.03;95547.25;4989302;28;20046;-46
2021/03/12 08:23:40;;;;;;;2.08;0.80;;;;;;;4.61;69.99;95540.88;4982918;28;20047;-47
2021/03/12 08:27:00;;;;;;;3.42;0.90;;;;;;;4.75;68.31;95555.03;5015870;28;20100;-45
2021/03/12 08:29:45;;;;;;;4.30;1.17;;;;;;;4.57;69.34;95535.34;4949939;28;20043;-46
2021/03/12 08:32:44;;;;;;;7.18;1.10;;;;;;;4.62;68.69;95531.75;4990825;28;20042;-46
2021/03/12 08:35:32;;;;;;;2.97;0.70;;;;;;;4.84;67.93;95539.81;4982231;28;20550;-48
2021/03/12 08:38:26;;;;;;;8.32;0.90;;;;;;;4.82;68.82;95531.28;4982552;28;20561;-47
2021/03/12 08:41:40;;;;;;;2.88;1.15;;;;;;;4.84;67.68;95529.09;4990099;28;20188;-45
2021/03/12 08:44:27;;;;;;;5.07;0.85;;;;;;;4.99;67.02;95533.28;4922399;28;20046;-47
2021/03/12 08:47:18;;;;;;;1.63;0.60;;;;;;;5.06;64.88;95535.53;4971480;28;20061;-46
2021/03/12 08:49:50;;;;;;;2.72;0.73;;;;;;;5.22;65.51;95523.31;4978621;28;20039;-49
2021/03/12 08:52:23;;;;;;;3.90;0.73;;;;;;;5.25;65.05;95522.69;4987321;28;20058;-47
2021/03/12 08:54:56;;;;;;;3.20;0.60;;;;;;;5.29;64.35;95539.75;4992410;28;20105;-45
2021/03/12 08:57:27;;;;;;;1.98;0.73;;;;;;;5.41;64.74;95535.72;4992454;28;20058;-45
2021/03/12 09:00:20;;;;;;;1.85;0.70;;;;;;;5.52;63.08;95520.91;4988187;28;20184;-46
2021/03/12 09:03:17;;;;;;;1.85;0.57;;;;;;;5.55;60.51;95536.41;4988723;28;20050;-45
2021/03/12 09:06:08;;;;;;;3.45;0.85;;;;;;;5.64;60.86;95523.81;4980151;28;20068;-48
2021/03/12 09:08:58;;;;;;;2.67;0.70;;;;;;;5.94;62.90;95529.47;4987429;28;20050;-45
2021/03/12 09:11:55;;;;;;;3.55;0.70;;;;;;;6.22;61.77;95524.63;4990473;28;20182;-47
2021/03/12 09:14:24;;;;;;;2.75;0.80;;;;;;;6.42;58.46;95515.16;4991793;28;20108;-47
2021/03/12 09:16:58;;;;;;;2.40;1.02;;;;;;;5.92;57.99;95505.59;4989601;28;20531;-46
2021/03/12 09:19:30;;;;;;;2.83;0.38;;;;;;;6.14;58.93;95504.69;4996844;28;20092;-45
2021/03/12 09:22:02;;;;;;;2.38;1.33;;;;;;;6.31;57.58;95510.09;4988886;28;20149;-46
2021/03/12 09:24:51;;;;;;;1.88;0.60;;;;;;;6.38;57.78;95508.84;4987048;28;20058;-45
2021/03/12 09:27:19;;;;;;;3.50;0.88;;;;;;;6.55;57.21;95508.84;4983840;28;20054;-47
2021/03/12 09:29:54;;;;;;;3.95;1.00;;;;;;;6.82;57.54;95496.16;4995042;28;20078;-49
2021/03/12 09:32:37;;;;;;;2.38;0.80;;;;;;;6.86;55.09;95497.91;4974781;28;20050;-45
2021/03/12 09:35:19;;;;;;;1.50;0.65;;;;;;;7.13;53.74;95496.75;4971164;28;20062;-45
2021/03/12 09:37:52;;;;;;;3.08;0.60;;;;;;;6.69;52.48;95495.22;4983272;28;20088;-45
2021/03/12 09:40:41;;;;;;;3.50;0.60;;;;;;;6.73;53.26;95494.28;4970315;28;20047;-45
2021/03/12 09:43:34;;;;;;;2.25;0.70;;;;;;;6.92;53.29;95485.06;4987033;28;20043;-46
2021/03/12 09:46:08;;;;;;;1.55;0.73;;;;;;;7.01;52.93;95494.72;4982281;28;20453;-46
2021/03/12 09:48:43;;;;;;;3.42;0.82;;;;;;;6.80;53.69;95491.13;5007444;28;20054;-45
2021/03/12 09:51:30;;;;;;;1.67;0.65;;;;;;;6.94;53.21;95489.03;4974599;28;20137;-49
2021/03/12 09:53:59;;;;;;;4.05;1.10;;;;;;;6.78;54.50;95494.13;4978950;28;20046;-47
2021/03/12 09:56:32;;;;;;;3.05;0.93;;;;;;;6.89;52.72;95493.78;4983120;28;20054;-43
2021/03/12 09:59:04;;;;;;;3.03;0.93;;;;;;;7.14;52.46;95490.25;4990295;28;20054;-42
2021/03/12 10:01:50;;;;;;;2.80;0.90;;;;;;;7.32;51.02;95499.06;4990973;28;20172;-45
2021/03/12 10:04:57;;;;;;;3.35;0.90;;;;;;;7.05;50.37;95497.53;4988570;28;20058;-42
2021/03/12 10:08:04;;;;;;;3.75;1.00;;;;;;;6.96;50.12;95489.50;4989896;28;20042;-41
2021/03/12 10:10:43;;;;;;;3.17;1.10;;;;;;;7.56;49.72;95484.25;4984495;28;20455;-43
2021/03/12 10:13:32;;;;;;;16.73;1.35;;;;;;;7.13;50.74;95486.00;4980941;28;20044;-45
2021/03/12 10:16:12;;;;;;;3.75;0.80;;;;;;;7.21;49.44;95481.69;4989565;28;20464;-42
2021/03/12 10:19:01;;;;;;;3.30;1.00;;;;;;;7.19;50.11;95495.47;4986900;28;20046;-42
2021/03/12 10:21:29;;;;;;;7.00;1.13;;;;;;;6.97;51.09;95482.22;4986315;28;20141;-43
2021/03/12 10:23:55;;;;;;;4.53;0.90;;;;;;;7.03;51.57;95507.84;4990694;28;20050;-42
2021/03/12 10:26:24;;;;;;;4.60;1.10;;;;;;;7.19;51.32;95483.91;4985072;28;20051;-40
2021/03/12 10:28:52;;;;;;;3.30;1.10;;;;;;;7.61;49.64;95492.16;4991047;28;20073;-46
2021/03/12 10:31:18;;;;;;;3.97;0.80;;;;;;;7.44;49.05;95474.16;4978969;28;20054;-45
2021/03/12 10:33:50;;;;;;;2.03;0.90;;;;;;;7.33;49.33;95508.72;4999716;28;20046;-43
2021/03/12 10:36:18;;;;;;;2.15;0.70;;;;;;;7.17;48.18;95505.75;4980556;28;20100;-44
2021/03/12 10:38:46;;;;;;;1.45;0.60;;;;;;;6.91;48.26;95499.63;4990459;28;20042;-43
2021/03/12 10:41:25;;;;;;;1.40;0.70;;;;;;;7.39;47.42;95487.81;4991073;28;20137;-48
2021/03/12 10:44:02;;;;;;;3.15;0.75;;;;;;;7.89;47.89;95482.50;4989560;28;20050;-46
2021/03/12 10:46:30;;;;;;;1.65;0.60;;;;;;;8.04;47.51;95481.16;4991357;28;20050;-47
2021/03/12 10:48:58;;;;;;;2.00;0.70;;;;;;;7.27;47.08;95477.72;4990159;28;20054;-46
2021/03/12 10:51:40;;;;;;;4.07;0.77;;;;;;;7.21;47.27;95479.81;4992445;28;20053;-44
2021/03/12 10:54:12;;;;;;;2.23;1.20;;;;;;;7.67;47.69;95472.00;4990645;28;20120;-44
2021/03/12 10:56:47;;;;;;;5.38;0.80;;;;;;;7.35;47.69;95465.34;4991868;28;20050;-43
2021/03/12 10:59:15;;;;;;;2.67;0.70;;;;;;;7.25;48.02;95469.97;4987521;28;20113;-42
2021/03/12 11:01:45;;;;;;;1.77;0.50;;;;;;;7.36;47.54;95458.84;4972419;28;20380;-43
2021/03/12 11:04:14;;;;;;;3.83;0.95;;;;;;;7.63;46.42;95455.69;4990793;28;20062;-45
2021/03/12 11:06:41;;;;;;;2.70;1.13;;;;;;;7.61;47.16;95455.25;4988806;28;20053;-45
2021/03/12 11:09:10;;;;;;;2.22;0.70;;;;;;;7.66;48.06;95446.19;4997854;28;20117;-45
2021/03/12 11:11:37;;;;;;;2.60;0.73;;;;;;;7.94;46.93;95460.78;4990332;28;20054;-46
2021/03/12 11:14:05;;;;;;;5.40;0.85;;;;;;;7.56;45.54;95444.66;4988565;28;20046;-42
2021/03/12 11:16:32;;;;;;;2.35;0.68;;;;;;;8.16;45.05;95451.59;4987425;28;20054;-43
2021/03/12 11:18:59;;;;;;;3.03;0.82;;;;;;;8.00;45.03;95463.28;4988017;28;20054;-45
2021/03/12 11:21:28;;;;;;;3.88;0.77;;;;;;;8.79;43.31;95442.69;4985150;28;20403;-46
2021/03/12 11:23:55;;;;;;;2.10;0.60;;;;;;;9.50;41.35;95455.88;4986497;28;20136;-44
2021/03/12 11:26:24;;;;;;;5.05;0.73;;;;;;;9.89;40.42;95452.84;4986021;28;20046;-46
2021/03/12 11:28:51;;;;;;;3.20;0.68;;;;;;;8.66;42.21;95453.44;4969205;28;20504;-42
2021/03/12 11:31:19;;;;;;;2.92;0.95;;;;;;;8.75;43.72;95441.78;4983833;28;20499;-47
2021/03/12 11:33:46;;;;;;;3.33;1.10;;;;;;;9.67;40.92;95433.25;4985626;28;20046;-42
2021/03/12 11:36:13;;;;;;;2.63;0.70;;;;;;;8.60;42.54;95422.41;4998546;28;20061;-47
2021/03/12 11:38:40;;;;;;;3.92;0.90;;;;;;;10.56;39.90;95418.91;4987667;28;20050;-45
2021/03/12 11:41:07;;;;;;;3.40;0.80;;;;;;;9.77;40.90;95426.63;4994092;28;20144;-41
2021/03/12 11:43:34;;;;;;;2.88;1.00;;;;;;;8.60;43.31;95411.59;4995348;28;20054;-43
2021/03/12 11:46:00;;;;;;;2.85;1.00;;;;;;;9.75;40.87;95426.16;4995197;28;20464;-45
2021/03/12 11:48:27;;;;;;;1.85;0.80;;;;;;;8.63;44.16;95418.25;4978923;28;20050;-44
2021/03/12 11:50:54;;;;;;;4.88;1.45;;;;;;;11.18;39.63;95427.53;4981531;28;20051;-42
2021/03/12 11:53:20;;;;;;;3.10;1.00;;;;;;;10.89;40.00;95412.47;4979290;28;20469;-44
2021/03/12 11:55:48;;;;;;;2.92;0.80;;;;;;;12.09;37.40;95418.44;4993197;28;20108;-45
2021/03/12 11:58:15;;;;;;;1.98;0.73;;;;;;;13.77;33.90;95421.63;4992829;28;20663;-45
2021/03/12 12:00:42;;;;;;;4.10;0.80;;;;;;;11.85;37.06;95409.41;4990203;28;20142;-46
2021/03/12 12:03:09;;;;;;;3.08;0.90;;;;;;;14.00;33.96;95402.53;4989377;28;20189;-44
2021/03/12 12:05:37;;;;;;;3.03;0.70;;;;;;;14.89;31.42;95405.66;4987472;28;20050;-45
2021/03/12 12:08:04;;;;;;;3.92;0.90;;;;;;;14.68;30.64;95406.16;4987452;28;20579;-43
2021/03/12 12:10:31;;;;;;;2.70;1.15;;;;;;;16.33;27.70;95398.25;4985742;28;20059;-45
2021/03/12 12:12:57;;;;;;;2.15;0.93;;;;;;;13.77;33.27;95403.38;4986710;28;20543;-46
2021/03/12 12:15:30;;;;;;;5.50;0.90;;;;;;;16.39;28.73;95403.34;4988973;28;20058;-47